createdAt,value
2022-10-30T00:02:14.331Z,92.14
2022-10-30T00:05:17.791Z,92.17
2022-10-30T00:08:22.504Z,92.29
2022-10-30T00:11:25.130Z,92.13
2022-10-30T00:14:27.492Z,92.53
2022-10-30T00:17:29.838Z,92.65
2022-10-30T00:20:32.447Z,92.42
2022-10-30T00:23:34.805Z,92.33
2022-10-30T00:26:37.193Z,92.56
2022-10-30T00:29:39.638Z,92.68
2022-10-30T00:32:42.934Z,92.32
2022-10-30T00:35:49.379Z,92.13
2022-10-30T00:38:52.023Z,91.99
2022-10-30T00:41:56.018Z,92.08
2022-10-30T00:44:58.638Z,92.02
2022-10-30T00:48:03.842Z,92.12
2022-10-30T00:51:10.816Z,91.90
2022-10-30T00:54:16.154Z,91.81
2022-10-30T00:57:19.811Z,91.90
2022-10-30T01:00:24.451Z,92.21
2022-10-30T01:03:29.497Z,92.33
2022-10-30T01:06:38.646Z,92.16
2022-10-30T01:09:41.731Z,91.51
2022-10-30T01:12:46.262Z,91.62
2022-10-30T01:16:29.989Z,91.20
2022-10-30T01:23:26.349Z,91.98
2022-10-30T01:27:06.606Z,91.91
2022-10-30T01:30:38.718Z,91.81
2022-10-30T01:33:47.501Z,91.84
2022-10-30T01:37:18.641Z,92.02
2022-10-30T01:40:21.300Z,92.09
2022-10-30T01:43:23.859Z,91.51
2022-10-30T01:46:47.942Z,91.15
2022-10-30T01:50:02.447Z,91.16
2022-10-30T01:53:27.280Z,91.00
2022-10-30T01:56:32.521Z,90.91
2022-10-30T01:59:44.626Z,91.44
2022-10-30T02:02:49.763Z,91.78
2022-10-30T02:05:55.669Z,92.36
2022-10-30T02:08:59.609Z,93.02
2022-10-30T02:12:02.759Z,92.60
2022-10-30T02:15:07.217Z,92.09
2022-10-30T02:18:11.719Z,92.66
2022-10-30T02:21:15.618Z,92.89
2022-10-30T02:24:19.362Z,92.53
2022-10-30T02:27:21.701Z,93.32
2022-10-30T02:30:24.230Z,93.96
2022-10-30T02:33:26.611Z,94.18
2022-10-30T02:36:29.065Z,94.53
2022-10-30T02:39:31.501Z,94.36
2022-10-30T02:42:34.936Z,94.63
2022-10-30T02:45:37.374Z,95.03
2022-10-30T02:48:40.032Z,94.83
2022-10-30T02:51:43.932Z,94.68
2022-10-30T02:54:47.901Z,94.02
2022-10-30T02:57:50.255Z,93.35
2022-10-30T03:00:53.505Z,93.30
2022-10-30T03:03:55.910Z,92.77
2022-10-30T03:06:58.687Z,92.84
2022-10-30T03:10:01.159Z,92.37
2022-10-30T03:13:05.134Z,93.23
2022-10-30T03:16:11.331Z,93.31
2022-10-30T03:19:13.733Z,93.63
2022-10-30T03:22:16.183Z,93.34
2022-10-30T03:25:23.778Z,93.43
2022-10-30T03:28:31.649Z,93.74
2022-10-30T03:31:34.173Z,93.63
2022-10-30T03:34:52.459Z,92.05
2022-10-30T03:38:01.098Z,92.41
2022-10-30T03:41:04.145Z,93.13
2022-10-30T03:44:06.541Z,93.13
2022-10-30T03:47:08.926Z,93.35
2022-10-30T03:50:16.036Z,93.59
2022-10-30T03:53:18.497Z,93.65
2022-10-30T03:56:20.859Z,93.69
2022-10-30T03:59:27.286Z,93.39
2022-10-30T04:02:50.277Z,93.45
2022-10-30T04:05:55.834Z,93.60
2022-10-30T04:08:58.538Z,93.37
2022-10-30T04:12:01.034Z,93.55
2022-10-30T04:15:04.478Z,93.23
2022-10-30T04:18:07.394Z,92.95
2022-10-30T04:21:10.613Z,93.29
2022-10-30T04:24:16.138Z,92.96
2022-10-30T04:27:20.420Z,92.93
2022-10-30T04:30:25.137Z,92.64
2022-10-30T04:33:28.739Z,92.41
2022-10-30T04:36:35.404Z,91.85
2022-10-30T04:39:42.277Z,92.25
2022-10-30T04:42:53.061Z,92.46
2022-10-30T04:45:55.858Z,91.89
2022-10-30T04:48:58.257Z,91.95
2022-10-30T04:52:00.957Z,91.98
2022-10-30T04:55:03.861Z,92.05
2022-10-30T04:58:08.160Z,92.60
2022-10-30T05:01:13.243Z,91.75
2022-10-30T05:04:15.653Z,91.97
2022-10-30T05:07:18.797Z,91.59
2022-10-30T05:10:21.207Z,91.89
2022-10-30T05:13:23.751Z,92.30
2022-10-30T05:16:26.136Z,92.81
2022-10-30T05:19:30.417Z,93.04
2022-10-30T05:22:33.396Z,92.70
2022-10-30T05:25:35.748Z,92.57
2022-10-30T05:28:41.131Z,92.95
2022-10-30T05:31:44.043Z,92.41
2022-10-30T05:35:06.550Z,93.35
2022-10-30T05:38:10.335Z,93.33
2022-10-30T05:41:13.440Z,93.28
2022-10-30T05:44:28.902Z,93.04
2022-10-30T05:47:38.533Z,93.13
2022-10-30T05:50:41.699Z,93.13
2022-10-30T05:54:01.188Z,92.54
2022-10-30T05:57:05.083Z,91.69
2022-10-30T06:00:11.534Z,92.36
2022-10-30T06:03:17.756Z,92.51
2022-10-30T06:06:21.341Z,92.78
2022-10-30T06:09:23.759Z,92.19
2022-10-30T06:12:53.202Z,92.25
2022-10-30T06:16:11.524Z,92.12
2022-10-30T06:19:34.406Z,91.80
2022-10-30T06:23:10.827Z,91.91
2022-10-30T06:26:23.908Z,91.56
2022-10-30T06:29:29.126Z,92.02
2022-10-30T06:32:31.475Z,92.21
2022-10-30T06:35:34.299Z,91.79
2022-10-30T06:38:36.828Z,90.77
2022-10-30T06:41:39.387Z,90.98
2022-10-30T06:45:05.317Z,90.93
2022-10-30T06:48:09.561Z,90.61
2022-10-30T06:51:17.093Z,90.30
2022-10-30T06:54:20.737Z,90.62
2022-10-30T06:57:35.522Z,91.33
2022-10-30T07:01:03.990Z,90.39
2022-10-30T07:04:32.550Z,89.37
2022-10-30T07:07:35.063Z,90.80
2022-10-30T07:10:38.004Z,89.90
2022-10-30T07:14:03.221Z,89.66
2022-10-30T07:17:18.385Z,90.10
2022-10-30T07:20:28.506Z,89.76
2022-10-30T07:23:30.826Z,90.04
2022-10-30T07:26:53.450Z,88.12
2022-10-30T07:30:06.654Z,89.66
2022-10-30T07:33:16.688Z,88.06
2022-10-30T07:36:33.838Z,88.22
2022-10-30T07:39:39.500Z,89.16
2022-10-30T07:42:58.695Z,89.40
2022-10-30T07:46:17.508Z,89.43
2022-10-30T07:49:38.705Z,90.24
2022-10-30T07:52:43.035Z,90.73
2022-10-30T07:55:45.527Z,89.36
2022-10-30T07:59:06.441Z,89.35
2022-10-30T08:02:32.649Z,90.03
2022-10-30T08:05:49.348Z,90.44
2022-10-30T08:09:07.307Z,88.77
2022-10-30T08:12:10.005Z,88.69
2022-10-30T08:15:12.557Z,88.02
2022-10-30T08:18:15.293Z,86.96
2022-10-30T08:21:18.661Z,87.14
2022-10-30T08:24:31.473Z,86.27
2022-10-30T08:27:35.365Z,84.97
2022-10-30T08:30:39.047Z,85.15
2022-10-30T08:33:51.073Z,85.73
2022-10-30T08:37:07.958Z,84.10
2022-10-30T08:40:11.428Z,84.18
2022-10-30T08:43:38.907Z,83.41
2022-10-30T08:46:41.239Z,82.84
2022-10-30T08:49:43.906Z,82.21
2022-10-30T08:52:50.721Z,81.83
2022-10-30T08:55:56.766Z,82.67
2022-10-30T08:59:09.501Z,81.10
2022-10-30T09:02:12.418Z,81.69
2022-10-30T09:05:33.225Z,82.09
2022-10-30T09:09:04.813Z,81.63
2022-10-30T09:12:17.959Z,81.80
2022-10-30T09:15:22.354Z,81.16
2022-10-30T09:18:30.652Z,80.94
2022-10-30T09:21:33.674Z,80.62
2022-10-30T09:24:37.420Z,81.68
2022-10-30T09:28:00.001Z,81.14
2022-10-30T09:31:08.523Z,80.78
2022-10-30T09:34:13.722Z,81.08
2022-10-30T09:37:37.266Z,80.55
2022-10-30T09:40:54.761Z,81.58
2022-10-30T09:44:15.444Z,81.55
2022-10-30T09:47:23.476Z,81.41
2022-10-30T09:50:35.710Z,81.07
2022-10-30T09:54:09.065Z,82.02
2022-10-30T09:57:29.761Z,80.44
2022-10-30T10:00:38.991Z,79.96
2022-10-30T10:04:03.901Z,79.78
2022-10-30T10:07:32.974Z,80.32
2022-10-30T10:11:00.286Z,81.29
2022-10-30T10:14:31.498Z,81.89
2022-10-30T10:17:37.519Z,81.24
2022-10-30T10:20:43.594Z,81.34
2022-10-30T10:23:51.348Z,81.58
2022-10-30T10:27:13.124Z,81.35
2022-10-30T10:30:21.330Z,81.10
2022-10-30T10:33:45.614Z,80.89
2022-10-30T10:37:16.112Z,80.50
2022-10-30T10:40:22.110Z,80.08
2022-10-30T10:43:50.446Z,80.29
2022-10-30T10:47:17.672Z,80.74
2022-10-30T10:50:27.294Z,81.75
2022-10-30T10:53:40.722Z,81.38
2022-10-30T10:56:46.535Z,81.04
2022-10-30T10:59:55.161Z,80.31
2022-10-30T11:03:07.394Z,79.35
2022-10-30T11:06:32.602Z,80.08
2022-10-30T11:09:35.163Z,81.79
2022-10-30T11:12:37.673Z,82.78
2022-10-30T11:15:50.346Z,82.34
2022-10-30T11:18:58.051Z,82.75
2022-10-30T11:22:01.253Z,81.28
2022-10-30T11:25:26.933Z,81.22
2022-10-30T11:28:38.491Z,81.29
2022-10-30T11:31:43.205Z,81.12
2022-10-30T11:34:45.569Z,81.03
2022-10-30T11:38:12.238Z,81.30
2022-10-30T11:41:15.073Z,81.17
2022-10-30T11:44:17.513Z,81.41
2022-10-30T11:47:27.591Z,81.91
2022-10-30T11:50:31.767Z,80.25
2022-10-30T11:53:42.817Z,80.34
2022-10-30T11:56:49.091Z,79.73
2022-10-30T11:59:58.220Z,78.67
2022-10-30T12:03:06.262Z,79.55
2022-10-30T12:06:22.973Z,79.97
2022-10-30T12:09:25.330Z,78.88
2022-10-30T12:12:33.033Z,78.53
2022-10-30T12:15:37.389Z,78.42
2022-10-30T12:18:40.540Z,79.00
2022-10-30T12:21:48.826Z,77.81
2022-10-30T12:24:52.405Z,77.17
2022-10-30T12:28:00.724Z,77.77
2022-10-30T12:31:08.917Z,78.96
2022-10-30T12:34:46.551Z,77.63
2022-10-30T12:37:50.743Z,77.71
2022-10-30T12:41:08.388Z,77.85
2022-10-30T12:44:21.096Z,77.98
2022-10-30T12:47:32.979Z,77.35
2022-10-30T12:50:45.159Z,77.62
2022-10-30T12:54:19.514Z,78.28
2022-10-30T12:57:32.955Z,78.05
2022-10-30T13:00:52.100Z,78.02
2022-10-30T13:04:09.396Z,77.58
2022-10-30T13:07:38.597Z,79.18
2022-10-30T13:10:53.874Z,79.91
2022-10-30T13:14:00.163Z,80.14
2022-10-30T13:17:02.834Z,79.63
2022-10-30T13:20:14.045Z,78.91
2022-10-30T13:23:25.049Z,79.31
2022-10-30T13:26:33.360Z,78.40
2022-10-30T13:29:50.629Z,80.18
2022-10-30T13:33:22.021Z,80.18
2022-10-30T13:36:34.036Z,81.95
2022-10-30T13:39:52.436Z,81.63
2022-10-30T13:43:06.595Z,82.36
2022-10-30T13:46:39.726Z,82.39
2022-10-30T13:50:09.811Z,81.45
2022-10-30T13:53:22.250Z,80.89
2022-10-30T13:56:24.746Z,80.81
2022-10-30T13:59:48.464Z,82.65
2022-10-30T14:02:53.638Z,82.58
2022-10-30T14:06:10.094Z,81.95
2022-10-30T14:09:21.558Z,82.65
2022-10-30T14:12:52.908Z,83.14
2022-10-30T14:16:06.554Z,82.89
2022-10-30T14:19:16.903Z,82.28
2022-10-30T14:22:25.245Z,82.02
2022-10-30T14:25:27.587Z,82.13
2022-10-30T14:28:31.960Z,81.54
2022-10-30T14:31:36.556Z,81.61
2022-10-30T14:34:46.125Z,81.43
2022-10-30T14:37:58.293Z,81.86
2022-10-30T14:41:22.409Z,81.05
2022-10-30T14:44:49.757Z,81.65
2022-10-30T14:47:58.028Z,81.51
2022-10-30T14:51:14.349Z,81.53
2022-10-30T14:54:31.806Z,80.62
2022-10-30T14:57:53.757Z,80.43
2022-10-30T15:01:21.077Z,81.15
2022-10-30T15:04:32.474Z,81.31
2022-10-30T15:07:52.170Z,81.31
2022-10-30T15:11:42.008Z,81.00
2022-10-30T15:14:54.809Z,81.88
2022-10-30T15:18:01.393Z,82.29
2022-10-30T15:21:06.585Z,82.23
2022-10-30T15:24:18.966Z,81.55
2022-10-30T15:27:24.356Z,83.26
2022-10-30T15:30:27.652Z,82.61
2022-10-30T15:33:35.431Z,82.05
2022-10-30T15:36:42.978Z,82.74
2022-10-30T15:39:45.329Z,82.83
2022-10-30T15:42:49.716Z,82.78
2022-10-30T15:45:55.024Z,83.01
2022-10-30T15:48:57.629Z,83.54
2022-10-30T15:52:03.075Z,82.43
2022-10-30T15:55:09.692Z,82.85
2022-10-30T15:58:17.516Z,83.28
2022-10-30T16:01:25.364Z,83.39
2022-10-30T16:04:35.700Z,83.95
2022-10-30T16:07:46.034Z,85.02
2022-10-30T16:10:50.021Z,85.01
2022-10-30T16:13:52.889Z,84.51
2022-10-30T16:16:59.833Z,84.34
2022-10-30T16:20:04.057Z,83.69
2022-10-30T16:23:07.384Z,83.64
2022-10-30T16:26:25.401Z,83.02
2022-10-30T16:29:29.908Z,83.50
2022-10-30T16:32:32.476Z,83.04
2022-10-30T16:35:34.939Z,83.07
2022-10-30T16:38:38.259Z,83.67
2022-10-30T16:41:40.742Z,83.63
2022-10-30T16:44:43.439Z,83.59
2022-10-30T16:48:08.448Z,82.42
2022-10-30T16:51:16.402Z,82.48
2022-10-30T16:54:26.074Z,82.63
2022-10-30T16:57:35.039Z,82.72
2022-10-30T17:00:40.055Z,82.69
2022-10-30T17:03:42.849Z,83.23
2022-10-30T17:06:45.694Z,83.53
2022-10-30T17:09:50.076Z,83.91
2022-10-30T17:13:12.927Z,82.81
2022-10-30T17:16:27.016Z,83.48
2022-10-30T17:19:32.759Z,83.28
2022-10-30T17:22:35.438Z,83.18
2022-10-30T17:25:39.395Z,83.38
2022-10-30T17:28:42.975Z,82.79
2022-10-30T17:31:45.538Z,82.86
2022-10-30T17:34:57.757Z,82.51
2022-10-30T17:38:03.150Z,81.75
2022-10-30T17:41:07.042Z,82.03
2022-10-30T17:44:19.635Z,82.22
2022-10-30T17:47:23.746Z,82.42
2022-10-30T17:50:26.421Z,82.63
2022-10-30T17:53:29.020Z,82.84
2022-10-30T17:56:33.485Z,83.20
2022-10-30T17:59:36.128Z,83.04
2022-10-30T18:02:41.285Z,82.69
2022-10-30T18:05:44.697Z,83.39
2022-10-30T18:08:50.558Z,83.37
2022-10-30T18:11:53.458Z,83.17
2022-10-30T18:14:56.200Z,83.98
2022-10-30T18:17:58.898Z,83.90
2022-10-30T18:21:01.397Z,83.08
2022-10-30T18:24:10.449Z,83.74
2022-10-30T18:27:13.077Z,83.46
2022-10-30T18:30:16.042Z,83.51
2022-10-30T18:33:18.688Z,83.87
2022-10-30T18:36:23.974Z,84.46
2022-10-30T18:39:26.399Z,84.44
2022-10-30T18:42:28.788Z,84.77
2022-10-30T18:45:37.537Z,83.84
2022-10-30T18:48:40.877Z,84.25
2022-10-30T18:51:43.457Z,84.79
2022-10-30T18:54:46.015Z,84.90
2022-10-30T18:57:50.356Z,85.33
2022-10-30T19:01:11.070Z,85.15
2022-10-30T19:04:18.010Z,86.20
2022-10-30T19:07:24.316Z,85.85
2022-10-30T19:10:29.438Z,85.24
2022-10-30T19:13:32.480Z,85.41
2022-10-30T19:16:34.944Z,85.33
2022-10-30T19:19:37.561Z,84.61
2022-10-30T19:22:40.610Z,84.86
2022-10-30T19:25:44.451Z,85.14
2022-10-30T19:28:48.167Z,84.94
2022-10-30T19:31:50.778Z,84.41
2022-10-30T19:34:53.398Z,84.22
2022-10-30T19:37:56.547Z,84.17
2022-10-30T19:41:00.125Z,84.49
2022-10-30T19:44:02.792Z,84.52
2022-10-30T19:47:05.338Z,84.36
2022-10-30T19:50:35.136Z,84.26
2022-10-30T19:53:38.316Z,84.86
2022-10-30T19:56:43.414Z,85.21
2022-10-30T19:59:46.116Z,85.37
2022-10-30T20:02:48.819Z,85.30
2022-10-30T20:05:51.466Z,85.16
2022-10-30T20:08:54.045Z,85.21
2022-10-30T20:11:56.742Z,85.29
2022-10-30T20:14:59.325Z,85.01
2022-10-30T20:18:16.340Z,85.29
2022-10-30T20:21:19.350Z,86.17
2022-10-30T20:24:23.125Z,86.23
2022-10-30T20:27:26.564Z,86.37
2022-10-30T20:30:29.541Z,86.25
2022-10-30T20:33:32.452Z,86.32
2022-10-30T20:36:34.785Z,86.75
2022-10-30T20:39:37.328Z,86.80
2022-10-30T20:42:40.517Z,86.73
2022-10-30T20:45:43.116Z,86.48
2022-10-30T20:48:45.861Z,86.31
2022-10-30T20:51:48.444Z,86.21
2022-10-30T20:54:50.946Z,85.87
2022-10-30T20:57:53.458Z,84.61
2022-10-30T21:00:59.359Z,84.29
2022-10-30T21:04:02.440Z,84.72
2022-10-30T21:07:04.945Z,84.46
2022-10-30T21:10:07.541Z,84.67
2022-10-30T21:13:11.612Z,85.19
2022-10-30T21:16:14.277Z,84.77
2022-10-30T21:19:16.846Z,85.00
2022-10-30T21:22:19.420Z,85.36
2022-10-30T21:25:21.763Z,85.91
2022-10-30T21:28:24.175Z,85.44
2022-10-30T21:31:26.777Z,85.25
2022-10-30T21:34:29.163Z,85.66
2022-10-30T21:37:37.770Z,85.91
2022-10-30T21:40:40.128Z,86.58
2022-10-30T21:43:43.161Z,86.82
2022-10-30T21:46:45.522Z,86.88
2022-10-30T21:49:48.050Z,87.24
2022-10-30T21:52:50.416Z,87.89
2022-10-30T21:55:52.822Z,88.03
2022-10-30T21:58:56.478Z,87.62
2022-10-30T22:01:58.978Z,87.45
2022-10-30T22:05:01.413Z,87.49
2022-10-30T22:08:03.941Z,87.62
2022-10-30T22:11:10.836Z,87.69
2022-10-30T22:14:13.370Z,87.73
2022-10-30T22:17:15.879Z,87.76
2022-10-30T22:20:18.433Z,87.94
2022-10-30T22:23:20.880Z,88.18
2022-10-30T22:26:23.890Z,88.63
2022-10-30T22:29:26.227Z,88.39
2022-10-30T22:32:28.652Z,88.88
2022-10-30T22:35:31.004Z,88.33
2022-10-30T22:38:34.180Z,88.57
2022-10-30T22:41:38.272Z,88.57
2022-10-30T22:44:40.907Z,89.01
2022-10-30T22:47:43.266Z,88.41
2022-10-30T22:50:45.612Z,88.40
2022-10-30T22:53:56.342Z,88.49
2022-10-30T22:57:01.225Z,88.74
2022-10-30T23:00:05.821Z,88.95
2022-10-30T23:03:08.655Z,88.83
2022-10-30T23:06:11.786Z,89.41
2022-10-30T23:09:19.463Z,89.04
2022-10-30T23:12:21.871Z,89.27
2022-10-30T23:15:24.726Z,89.16
2022-10-30T23:18:27.203Z,89.10
2022-10-30T23:21:31.796Z,88.64
2022-10-30T23:24:34.242Z,88.72
2022-10-30T23:27:36.623Z,88.52
2022-10-30T23:30:42.503Z,88.81
2022-10-30T23:33:49.659Z,88.62
2022-10-30T23:36:53.519Z,88.83
2022-10-30T23:39:57.892Z,89.00
2022-10-30T23:43:00.707Z,88.90
2022-10-30T23:46:03.338Z,89.13
2022-10-30T23:49:05.987Z,89.31
2022-10-30T23:52:08.364Z,89.29
2022-10-30T23:55:10.873Z,89.83
2022-10-30T23:58:13.276Z,90.16
